createdAt,value
2019-05-29T00:02:20.619Z,17.47
2019-05-29T00:05:12.227Z,17.45
2019-05-29T00:07:46.213Z,17.39
2019-05-29T00:10:18.661Z,17.39
2019-05-29T00:12:50.398Z,17.34
2019-05-29T00:15:22.640Z,17.31
2019-05-29T00:17:54.600Z,17.29
2019-05-29T00:20:26.359Z,17.30
2019-05-29T00:22:58.806Z,17.28
2019-05-29T00:25:30.643Z,17.29
2019-05-29T00:28:02.916Z,17.26
2019-05-29T00:30:35.273Z,17.30
2019-05-29T00:33:07.958Z,17.26
2019-05-29T00:35:40.771Z,17.22
2019-05-29T00:38:12.753Z,17.18
2019-05-29T00:40:45.010Z,17.10
2019-05-29T00:43:17.613Z,17.08
2019-05-29T00:45:49.442Z,17.10
2019-05-29T00:48:21.414Z,17.05
2019-05-29T00:50:53.873Z,17.04
2019-05-29T00:53:26.057Z,17.03
2019-05-29T00:55:58.399Z,17.05
2019-05-29T00:58:30.323Z,17.03
2019-05-29T01:01:02.662Z,17.01
2019-05-29T01:03:34.771Z,17.01
2019-05-29T01:06:06.855Z,16.99
2019-05-29T01:08:41.132Z,16.96
2019-05-29T01:11:13.146Z,16.88
2019-05-29T01:13:45.845Z,16.83
2019-05-29T01:16:18.062Z,16.86
2019-05-29T01:18:49.608Z,16.81
2019-05-29T01:21:22.205Z,16.80
2019-05-29T02:45:03.264Z,16.12
2019-05-29T02:47:35.510Z,16.31
2019-05-29T02:50:08.108Z,16.48
2019-05-29T02:52:39.953Z,16.51
2019-05-29T02:55:12.742Z,16.63
2019-05-29T02:57:47.535Z,16.70
2019-05-29T03:00:25.543Z,16.83
2019-05-29T03:02:57.717Z,17.13
2019-05-29T03:05:29.981Z,17.12
2019-05-29T03:08:02.049Z,17.06
2019-05-29T03:10:35.693Z,16.97
2019-05-29T03:13:07.758Z,16.88
2019-05-29T03:15:39.880Z,16.84
2019-05-29T03:18:11.570Z,16.83
2019-05-29T03:20:43.806Z,16.87
2019-05-29T03:23:19.238Z,16.96
2019-05-29T03:25:54.826Z,17.05
2019-05-29T03:28:27.546Z,17.06
2019-05-29T03:30:59.269Z,17.14
2019-05-29T03:33:38.341Z,17.19
2019-05-29T03:36:04.741Z,17.32
2019-05-29T03:38:38.618Z,17.41
2019-05-29T03:41:10.835Z,17.52
2019-05-29T03:43:42.594Z,17.67
2019-05-29T03:46:29.869Z,17.70
2019-05-29T03:48:48.566Z,17.80
2019-05-29T03:51:20.835Z,17.89
2019-05-29T03:53:52.603Z,17.94
2019-05-29T03:56:24.254Z,18.04
2019-05-29T03:58:57.241Z,18.16
2019-05-29T04:01:31.288Z,18.25
2019-05-29T04:04:02.865Z,18.35
2019-05-29T04:06:35.649Z,18.44
2019-05-29T04:09:09.334Z,18.64
2019-05-29T04:11:42.214Z,18.71
2019-05-29T04:14:14.728Z,18.78
2019-05-29T04:16:59.153Z,18.88
2019-05-29T04:19:22.151Z,18.99
2019-05-29T04:21:56.916Z,19.09
2019-05-29T04:24:31.940Z,19.24
2019-05-29T04:27:05.958Z,19.36
2019-05-29T04:29:39.076Z,19.40
2019-05-29T04:32:11.321Z,19.52
2019-05-29T04:34:43.408Z,19.74
2019-05-29T04:37:15.017Z,19.88
2019-05-29T04:39:47.267Z,20.03
2019-05-29T04:42:19.599Z,20.15
2019-05-29T04:44:51.772Z,20.32
2019-05-29T04:47:24.095Z,20.52
2019-05-29T04:49:55.770Z,20.67
2019-05-29T04:52:29.080Z,20.78
2019-05-29T04:55:01.333Z,20.90
2019-05-29T04:57:33.427Z,21.07
2019-05-29T05:00:05.933Z,21.26
2019-05-29T05:02:37.690Z,21.38
2019-05-29T05:05:10.026Z,21.62
2019-05-29T05:07:42.168Z,21.79
2019-05-29T05:10:17.886Z,21.89
2019-05-29T05:13:04.829Z,22.09
2019-05-29T05:15:37.986Z,22.28
2019-05-29T05:18:10.601Z,22.46
2019-05-29T05:20:43.207Z,22.63
2019-05-29T05:23:15.148Z,22.77
2019-05-29T05:25:51.891Z,22.98
2019-05-29T05:28:24.228Z,23.12
2019-05-29T05:30:56.619Z,23.20
2019-05-29T05:33:30.613Z,23.32
2019-05-29T05:36:05.606Z,23.55
2019-05-29T05:41:08.914Z,23.94
2019-05-29T05:43:43.616Z,23.86
2019-05-29T05:46:15.815Z,24.28
2019-05-29T05:48:48.982Z,23.90
2019-05-29T05:51:21.275Z,24.16
2019-05-29T05:53:53.768Z,24.51
2019-05-29T05:56:25.577Z,24.26
2019-05-29T05:58:57.971Z,24.02
2019-05-29T06:01:31.672Z,24.46
2019-05-29T06:04:04.284Z,23.81
2019-05-29T06:06:36.671Z,24.64
2019-05-29T06:09:09.402Z,24.91
2019-05-29T06:11:42.639Z,24.67
2019-05-29T06:14:15.270Z,25.60
2019-05-29T06:16:49.655Z,26.03
2019-05-29T06:19:24.308Z,26.32
2019-05-29T06:21:56.890Z,25.85
2019-05-29T06:24:29.694Z,26.62
2019-05-29T06:27:05.320Z,27.09
2019-05-29T06:29:41.760Z,26.89
2019-05-29T06:32:14.661Z,26.85
2019-05-29T06:34:47.326Z,26.93
2019-05-29T06:37:19.291Z,27.66
2019-05-29T06:39:53.244Z,28.05
2019-05-29T06:42:26.845Z,28.29
2019-05-29T06:45:03.563Z,28.70
2019-05-29T06:47:38.783Z,28.40
2019-05-29T06:50:14.362Z,28.79
2019-05-29T06:52:47.772Z,28.26
2019-05-29T06:55:20.386Z,28.65
2019-05-29T06:57:55.414Z,29.02
2019-05-29T07:00:35.323Z,27.94
2019-05-29T07:03:01.878Z,27.97
2019-05-29T07:05:37.683Z,28.53
2019-05-29T07:08:19.149Z,28.70
2019-05-29T07:10:44.646Z,28.61
2019-05-29T07:13:17.511Z,27.60
2019-05-29T07:15:50.185Z,27.63
2019-05-29T07:18:22.350Z,28.41
2019-05-29T07:20:54.648Z,28.16
2019-05-29T07:23:29.119Z,28.32
2019-05-29T07:26:06.715Z,28.90
2019-05-29T07:28:58.861Z,28.19
2019-05-29T07:31:15.269Z,28.33
2019-05-29T07:33:58.593Z,28.47
2019-05-29T07:36:39.907Z,28.46
2019-05-29T07:39:15.926Z,28.54
2019-05-29T07:41:48.565Z,28.97
2019-05-29T07:44:39.932Z,29.30
2019-05-29T07:47:35.141Z,29.05
2019-05-29T07:50:10.106Z,28.97
2019-05-29T07:52:49.641Z,28.99
2019-05-29T07:55:23.766Z,28.98
2019-05-29T07:57:59.193Z,29.11
2019-05-29T08:00:35.637Z,29.61
2019-05-29T08:03:05.124Z,28.77
2019-05-29T08:05:37.554Z,29.72
2019-05-29T08:08:09.986Z,29.40
2019-05-29T08:10:48.043Z,29.21
2019-05-29T08:13:22.946Z,29.33
2019-05-29T08:16:09.003Z,28.79
2019-05-29T08:18:41.752Z,28.73
2019-05-29T08:21:14.739Z,29.30
2019-05-29T08:23:52.741Z,30.24
2019-05-29T08:26:25.301Z,30.08
2019-05-29T08:29:00.927Z,29.36
2019-05-29T08:31:34.491Z,29.71
2019-05-29T08:34:09.320Z,29.34
2019-05-29T08:37:00.826Z,29.17
2019-05-29T08:39:33.594Z,29.98
2019-05-29T08:42:19.552Z,30.11
2019-05-29T08:44:27.206Z,30.19
2019-05-29T08:47:10.169Z,29.72
2019-05-29T08:49:35.107Z,30.06
2019-05-29T08:52:12.484Z,30.36
2019-05-29T08:54:54.231Z,30.83
2019-05-29T08:57:25.118Z,30.71
2019-05-29T08:59:58.856Z,29.89
2019-05-29T09:02:30.811Z,30.19
2019-05-29T09:05:12.447Z,30.18
2019-05-29T09:07:46.391Z,30.41
2019-05-29T09:10:19.471Z,30.60
2019-05-29T09:13:03.987Z,30.37
2019-05-29T09:15:32.282Z,31.19
2019-05-29T09:18:08.386Z,31.43
2019-05-29T09:21:00.909Z,31.61
2019-05-29T09:23:16.890Z,30.90
2019-05-29T09:25:50.572Z,30.97
2019-05-29T09:28:29.892Z,30.82
2019-05-29T09:31:10.252Z,30.51
2019-05-29T09:34:00.793Z,30.61
2019-05-29T09:36:29.431Z,29.79
2019-05-29T09:39:05.541Z,30.10
2019-05-29T09:41:38.132Z,30.20
2019-05-29T09:44:25.105Z,30.71
2019-05-29T09:46:46.756Z,31.03
2019-05-29T09:49:21.928Z,31.04
2019-05-29T09:51:54.180Z,30.86
2019-05-29T09:54:26.539Z,31.07
2019-05-29T09:56:59.587Z,30.95
2019-05-29T09:59:34.657Z,30.84
2019-05-29T10:02:09.806Z,30.90
2019-05-29T10:04:41.854Z,30.99
2019-05-29T10:07:16.961Z,31.15
2019-05-29T10:09:56.894Z,30.83
2019-05-29T10:12:28.580Z,31.25
2019-05-29T10:15:02.753Z,31.18
2019-05-29T10:17:41.138Z,31.32
2019-05-29T10:20:16.616Z,31.68
2019-05-29T10:22:51.867Z,31.81
2019-05-29T10:25:23.343Z,31.72
2019-05-29T10:27:58.066Z,31.16
2019-05-29T10:30:30.521Z,30.07
2019-05-29T10:33:02.572Z,30.27
2019-05-29T10:35:35.217Z,29.73
2019-05-29T10:38:12.059Z,29.40
2019-05-29T10:41:02.368Z,29.56
2019-05-29T10:43:33.616Z,29.61
2019-05-29T10:45:57.235Z,29.36
2019-05-29T10:48:32.301Z,29.41
2019-05-29T10:51:04.730Z,29.45
2019-05-29T10:53:54.857Z,29.89
2019-05-29T10:56:29.825Z,29.80
2019-05-29T10:59:07.109Z,29.47
2019-05-29T11:01:39.666Z,29.13
2019-05-29T11:04:21.986Z,29.42
2019-05-29T11:06:54.889Z,29.25
2019-05-29T11:09:44.639Z,29.02
2019-05-29T11:12:14.193Z,29.09
2019-05-29T11:15:20.830Z,29.30
2019-05-29T11:17:48.901Z,29.33
2019-05-29T11:20:26.676Z,29.37
2019-05-29T11:22:59.329Z,29.60
2019-05-29T17:43:28.445Z,23.56
2019-05-29T17:45:58.988Z,23.50
2019-05-29T17:48:31.167Z,23.45
2019-05-29T17:51:05.185Z,23.34
2019-05-29T17:53:39.542Z,23.32
2019-05-29T17:56:25.223Z,23.26
2019-05-29T17:59:04.109Z,23.25
2019-05-29T18:01:38.111Z,23.13
2019-05-29T18:08:15.053Z,22.86
2019-05-29T18:18:43.884Z,22.58
2019-05-29T18:21:17.499Z,22.60
2019-05-29T18:23:53.406Z,22.52
2019-05-29T18:34:08.131Z,22.51
2019-05-29T18:36:47.297Z,22.40
2019-05-29T18:39:20.241Z,22.49
2019-05-29T18:41:52.873Z,22.62
2019-05-29T18:45:25.959Z,22.56
2019-05-29T18:51:46.234Z,22.53
2019-05-29T18:54:28.021Z,22.28
2019-05-29T18:55:14.851Z,22.56
2019-05-29T18:57:15.794Z,22.22
2019-05-29T18:59:50.029Z,22.22
2019-05-29T19:02:21.258Z,22.14
2019-05-29T19:05:16.042Z,22.14
2019-05-29T19:07:47.904Z,22.18
2019-05-29T19:10:23.567Z,22.23
2019-05-29T19:12:56.127Z,22.26
2019-05-29T19:15:38.222Z,22.22
2019-05-29T19:18:13.883Z,22.16
2019-05-29T19:20:47.211Z,22.20
2019-05-29T19:23:19.644Z,22.24
2019-05-29T19:25:55.202Z,22.15
2019-05-29T19:28:27.300Z,22.17
2019-05-29T19:31:01.270Z,22.00
2019-05-29T19:33:33.556Z,22.02
2019-05-29T19:36:08.171Z,21.96
2019-05-29T19:38:41.160Z,21.97
2019-05-29T19:41:13.224Z,21.92
2019-05-29T19:43:45.339Z,21.89
2019-05-29T19:46:21.959Z,21.90
2019-05-29T19:48:54.036Z,21.87
2019-05-29T19:51:27.308Z,21.75
2019-05-29T19:54:00.101Z,21.51
2019-05-29T19:56:37.410Z,21.63
2019-05-29T19:59:09.943Z,21.62
2019-05-29T20:01:41.741Z,21.47
2019-05-29T20:04:15.742Z,21.44
2019-05-29T20:06:48.195Z,21.43
2019-05-29T20:09:22.774Z,21.39
2019-05-29T20:12:15.531Z,21.29
2019-05-29T20:22:32.585Z,21.14
2019-05-29T20:25:05.498Z,21.11
2019-05-29T20:27:38.521Z,21.04
2019-05-29T20:30:19.776Z,20.95
2019-05-29T20:50:43.333Z,20.71
2019-05-29T20:53:15.895Z,20.74
2019-05-29T20:55:47.716Z,20.67
2019-05-29T20:58:24.531Z,20.58
2019-05-29T22:00:46.479Z,19.81
2019-05-29T22:03:18.882Z,19.62
2019-05-29T22:05:50.866Z,19.59
2019-05-29T22:08:22.812Z,19.57
2019-05-29T22:10:57.580Z,19.53
2019-05-29T22:13:29.451Z,19.47
2019-05-29T22:16:01.867Z,19.44
2019-05-29T22:18:33.406Z,19.44
2019-05-29T22:21:06.052Z,19.65
2019-05-29T22:23:38.091Z,19.57
2019-05-29T22:26:09.926Z,19.57
2019-05-29T22:28:42.078Z,19.41
2019-05-29T22:31:14.468Z,19.43
2019-05-29T22:33:46.844Z,19.37
2019-05-29T22:36:19.146Z,19.29
2019-05-29T22:38:51.412Z,19.17
2019-05-29T22:41:25.238Z,19.25
2019-05-29T22:43:59.720Z,19.28
2019-05-29T22:46:33.348Z,19.20
2019-05-29T22:49:08.480Z,19.15
2019-05-29T22:51:40.343Z,19.09
2019-05-29T22:54:13.460Z,19.08
2019-05-29T22:56:45.522Z,19.02
2019-05-29T22:59:31.109Z,19.01
2019-05-29T23:01:52.011Z,18.98
2019-05-29T23:04:24.417Z,18.95
2019-05-29T23:07:02.468Z,18.91
2019-05-29T23:09:32.845Z,18.91
2019-05-29T23:12:04.566Z,18.88
2019-05-29T23:14:36.483Z,18.83
2019-05-29T23:17:08.585Z,18.78
2019-05-29T23:19:40.737Z,18.78
2019-05-29T23:22:13.084Z,18.77
2019-05-29T23:24:44.697Z,18.77
2019-05-29T23:27:17.107Z,18.69
2019-05-29T23:29:49.608Z,18.60
2019-05-29T23:32:21.304Z,18.59
2019-05-29T23:34:53.445Z,18.58
2019-05-29T23:37:25.547Z,18.53
2019-05-29T23:39:59.234Z,18.48
2019-05-29T23:42:31.122Z,18.42
2019-05-29T23:45:03.747Z,18.44
2019-05-29T23:47:36.236Z,18.43
2019-05-29T23:50:08.534Z,18.43
2019-05-29T23:52:42.164Z,18.44
2019-05-29T23:55:14.506Z,18.45
2019-05-29T23:57:46.121Z,18.40
